Aérodrome :
LOGIN :

S'inscrire | Disclaimer

   EN    FR    IT 

 










Légende :    VFR   VFR Marginal   IFR   IFR Intensif   IFR Très Intensif
Visi : 
Plafond : 
>= 8 km
>= 3000ft
5 à 8 km
1000 à 3000 ft
1500m à 5 km
500 à 1000 ft
800 à 1500m
200 à 500 ft
< 800m
< 200 ft
Symboles :   Orages  Brouillard  Fortes neiges  Fortes précipitations  Vent > 20 kt
SIGMETs :   Divers  Orages  Givrage  Turbulence  Onde Orograph.  Cendres Volcan.






- Altitude de l'aérodrome : 425 ft
- Code IATA : DTM


EDLW - Dortmund

DERNIER METAR :
  • 260020Z AUTO 19007KT 9999 // FEW013/// BKN023/// OVC052/// 04/02 Q0992

METARs EXPIRÉS :
  • 252350Z AUTO 18007KT 9999 // SCT016/// BKN028/// BKN063/// 03/02 Q0992
  • 252320Z AUTO 19007KT 9999 // FEW015/// BKN017/// BKN032/// 03/02 Q0993
  • 252250Z AUTO 22012KT 9999 // FEW009/// BKN019/// BKN046/// 03/02 Q0993
  • 252220Z AUTO 19007KT 9999 // FEW008/// SCT018/// BKN054/// 03/02 Q0994
  • 252150Z AUTO 19007KT 9999 // SCT007/// BKN150/// 03/02 Q0994

TAF TAF EDLW
Valide du 25 à 18h jusqu'au 26 à 18h UTC


251700Z 2518/2618 24012KT 9999 BKN030
TEMPO 2518/2617 26015G25KT SHRA BKN020CB
PROB30
TEMPO 2518/2523 3500 TSRAGS BKN012CB
BECMG 2523/2602 BKN008
PROB40
TEMPO 2604/2610 2000 SHSN BKN004CB
PROB30
TEMPO 2612/2616 3000 TSRAGS BKN012CB
BECMG 2615/2618 BKN015



MET'MAP, la Météo Aéronautique d'un coup d'oeil ! - Copyright ORBIFLY Décembre 2007 - Disclaimer

ORBIFLY MET'MAP TEAM :

Programmation & Développement : Alexandra Zaïnal
Sur une idée originale de : Baudouin d'Aumeries
Assistance à la programmation : Marc-Olivier Méhu
Soutien technique & logistique : Manuel Goepfert

Contact : metmap@orbifly.com




SOURCES & CREDITS :

   NOAA